Time;durP1;ratioP1;P1;durP2;ratioP2;P2;SDS_P1;SDS_P2;PMS_P1;PMS_P2;Temp;Humidity;BMP_temperature;BMP_pressure;BME280_temperature;BME280_humidity;BME280_pressure;Samples;Min_cycle;Max_cycle;Signal;HPM_P1;HPM_P2
2022/05/27 00:00:42;;;;;;;0.50;0.50;;;;;;;8.76;99.04;97303.13;4930097;29;20104;-84
2022/05/27 00:03:11;;;;;;;0.40;0.40;;;;;;;8.66;99.22;97301.31;4915593;29;20080;-84
2022/05/27 00:05:38;;;;;;;0.40;0.40;;;;;;;8.72;99.29;97315.53;4915456;29;20056;-86
2022/05/27 00:08:06;;;;;;;0.50;0.50;;;;;;;8.72;99.39;97310.94;4915252;29;20538;-85
2022/05/27 00:10:34;;;;;;;0.40;0.40;;;;;;;8.55;99.58;97291.63;4916015;29;20048;-84
2022/05/27 00:13:01;;;;;;;0.40;0.40;;;;;;;8.49;99.21;97292.75;4915598;29;20574;-84
2022/05/27 00:15:28;;;;;;;0.50;0.50;;;;;;;8.59;99.22;97309.66;4915617;29;20056;-84
2022/05/27 00:17:55;;;;;;;0.50;0.50;;;;;;;8.66;99.36;97315.53;4914887;29;20124;-85
2022/05/27 00:20:23;;;;;;;0.40;0.40;;;;;;;8.55;99.82;97297.81;4914113;29;20056;-85
2022/05/27 00:22:50;;;;;;;0.40;0.40;;;;;;;8.68;99.46;97317.94;4914218;29;20048;-85
2022/05/27 00:25:19;;;;;;;0.40;0.40;;;;;;;8.62;99.35;97319.84;4915293;29;20078;-87
2022/05/27 00:27:46;;;;;;;0.40;0.40;;;;;;;8.63;99.37;97329.53;4914071;29;20066;-85
2022/05/27 00:30:14;;;;;;;0.43;0.43;;;;;;;8.64;99.06;97325.75;4915387;29;20044;-86
2022/05/27 00:32:44;;;;;;;0.50;0.50;;;;;;;8.60;98.74;97319.31;4915120;29;20103;-85
2022/05/27 00:35:12;;;;;;;0.50;0.50;;;;;;;8.56;98.64;97322.81;4913387;29;20062;-85
2022/05/27 00:37:39;;;;;;;0.50;0.50;;;;;;;8.37;98.58;97309.91;4915413;29;20056;-86
2022/05/27 00:40:07;;;;;;;0.40;0.40;;;;;;;8.51;98.79;97331.72;4934867;29;20068;-86
2022/05/27 00:42:39;;;;;;;0.40;0.40;;;;;;;8.45;98.72;97313.97;4934949;29;20118;-85
2022/05/27 00:45:08;;;;;;;0.40;0.40;;;;;;;8.56;98.80;97339.78;4934372;29;20156;-86
2022/05/27 00:47:38;;;;;;;0.40;0.40;;;;;;;8.40;99.18;97309.41;4917061;29;20052;-86
2022/05/27 00:50:09;;;;;;;0.40;0.40;;;;;;;8.49;99.34;97330.38;4948932;29;20051;-85
2022/05/27 00:52:37;;;;;;;0.40;0.40;;;;;;;8.42;99.21;97318.00;4933928;29;20121;-86
2022/05/27 00:55:16;;;;;;;0.40;0.40;;;;;;;8.33;99.35;97314.25;4933883;29;20570;-84
2022/05/27 00:57:51;;;;;;;0.40;0.40;;;;;;;8.29;99.36;97315.06;4933855;29;20082;-85
2022/05/27 01:00:20;;;;;;;;;;;;;;;8.42;99.70;97330.66;4934105;29;20059;-84
2022/05/27 01:02:49;;;;;;;0.40;0.40;;;;;;;8.30;99.61;97313.97;4948922;29;19926;-85
2022/05/27 01:05:19;;;;;;;0.45;0.45;;;;;;;8.33;99.96;97322.31;4936644;29;20091;-86
2022/05/27 01:07:46;;;;;;;0.50;0.50;;;;;;;8.45;99.99;97330.09;4935041;29;20143;-85
2022/05/27 01:10:17;;;;;;;0.50;0.50;;;;;;;8.49;100.00;97331.19;4933943;29;20146;-86
2022/05/27 01:13:09;;;;;;;0.50;0.50;;;;;;;8.46;100.00;97331.72;4934087;29;20098;-85
2022/05/27 01:16:06;;;;;;;0.50;0.50;;;;;;;8.36;100.00;97315.59;4916948;29;20071;-85
2022/05/27 01:21:55;;;;;;;0.50;0.50;;;;;;;8.49;100.00;97325.00;4919310;29;20110;-86
2022/05/27 01:24:37;;;;;;;0.40;0.40;;;;;;;8.47;100.00;97330.63;4933577;29;20059;-85
2022/05/27 01:27:25;;;;;;;0.50;0.50;;;;;;;8.42;100.00;97325.25;4933769;29;20051;-84
2022/05/27 01:30:20;;;;;;;0.40;0.40;;;;;;;8.41;99.97;97326.34;4935103;29;20455;-85
2022/05/27 01:33:15;;;;;;;0.50;0.50;;;;;;;8.43;99.53;97332.25;4936261;29;20515;-84
2022/05/27 01:35:42;;;;;;;0.40;0.40;;;;;;;8.37;99.35;97336.00;4935759;29;20096;-85
2022/05/27 01:38:25;;;;;;;0.50;0.50;;;;;;;8.35;99.35;97319.31;4937275;29;20511;-84
2022/05/27 01:41:15;;;;;;;0.50;0.50;;;;;;;8.42;99.35;97336.81;4936213;29;20052;-86
2022/05/27 01:44:00;;;;;;;0.40;0.40;;;;;;;8.23;99.42;97315.06;4935912;29;20079;-84
2022/05/27 01:46:37;;;;;;;0.50;0.50;;;;;;;8.41;99.31;97347.88;4920172;29;20062;-84
2022/05/27 01:49:12;;;;;;;0.40;0.40;;;;;;;8.43;99.37;97337.63;4935994;29;20066;-85
2022/05/27 01:51:44;;;;;;;0.50;0.50;;;;;;;8.42;99.11;97341.41;4937060;29;20055;-85
2022/05/27 01:54:31;;;;;;;0.43;0.43;;;;;;;8.43;99.17;97337.63;4937056;29;20069;-85
2022/05/27 01:57:05;;;;;;;0.50;0.50;;;;;;;8.27;99.07;97328.75;4936328;29;20138;-83
2022/05/27 01:59:37;;;;;;;0.50;0.50;;;;;;;8.35;98.99;97335.44;4935995;29;20087;-84
2022/05/27 02:02:12;;;;;;;0.50;0.50;;;;;;;8.49;98.81;97347.31;4936076;29;20083;-84
2022/05/27 02:04:44;;;;;;;0.40;0.40;;;;;;;8.41;98.54;97334.41;4935584;29;20102;-83
2022/05/27 02:07:16;;;;;;;0.50;0.50;;;;;;;8.49;98.62;97333.88;4904431;29;20063;-84
2022/05/27 02:09:58;;;;;;;0.50;0.50;;;;;;;8.33;98.73;97318.78;4936351;29;20058;-83
2022/05/27 02:12:30;;;;;;;0.45;0.45;;;;;;;8.51;98.62;97342.47;4919665;29;20106;-85
2022/05/27 02:15:21;;;;;;;0.50;0.50;;;;;;;8.46;98.17;97343.28;4919667;29;20062;-85
2022/05/27 02:18:12;;;;;;;0.50;0.50;;;;;;;8.38;98.00;97334.91;4936254;29;20051;-84
2022/05/27 02:20:44;;;;;;;0.50;0.50;;;;;;;8.28;97.90;97321.47;4935043;29;20086;-85
2022/05/27 02:23:22;;;;;;;0.50;0.50;;;;;;;8.33;97.94;97333.06;4935109;29;20092;-84
2022/05/27 02:25:51;;;;;;;0.50;0.50;;;;;;;8.36;98.02;97345.94;4935318;29;20059;-84
2022/05/27 02:28:26;;;;;;;0.50;0.50;;;;;;;8.33;97.64;97343.81;4935217;29;20090;-85
2022/05/27 02:30:57;;;;;;;0.50;0.50;;;;;;;8.33;97.62;97342.97;4935453;29;20095;-84
2022/05/27 02:36:30;;;;;;;0.50;0.50;;;;;;;8.37;97.50;97346.75;4934758;29;20474;-84
2022/05/27 02:38:57;;;;;;;0.50;0.50;;;;;;;8.23;97.37;97323.13;4934707;29;20126;-84
2022/05/27 02:41:45;;;;;;;0.50;0.50;;;;;;;8.37;97.00;97334.09;4933835;29;20082;-85
2022/05/27 02:44:24;;;;;;;0.40;0.40;;;;;;;8.28;97.09;97321.47;4936138;29;20048;-85
2022/05/27 02:47:10;;;;;;;0.40;0.40;;;;;;;8.38;96.71;97338.44;4936126;29;20056;-84
2022/05/27 02:50:01;;;;;;;0.50;0.50;;;;;;;8.35;96.57;97340.84;4935523;29;20052;-84
2022/05/27 02:52:53;;;;;;;0.40;0.40;;;;;;;8.36;96.50;97342.47;4919569;29;20060;-83
2022/05/27 02:55:25;;;;;;;0.40;0.40;;;;;;;8.37;96.53;97344.84;4938249;29;20094;-85
2022/05/27 02:57:54;;;;;;;0.50;0.50;;;;;;;8.37;96.41;97341.38;4935825;29;20118;-84
2022/05/27 03:00:30;;;;;;;0.50;0.50;;;;;;;8.38;96.48;97340.28;4934384;29;20044;-84
2022/05/27 03:03:01;;;;;;;0.50;0.50;;;;;;;8.25;96.55;97329.03;4935866;29;20519;-82
2022/05/27 03:05:36;;;;;;;0.40;0.40;;;;;;;8.29;96.59;97320.41;4935400;29;20060;-83
2022/05/27 03:08:22;;;;;;;0.40;0.40;;;;;;;8.39;96.57;97345.44;4934204;29;20047;-83
2022/05/27 03:11:13;;;;;;;0.50;0.50;;;;;;;8.29;96.77;97336.56;4934493;29;20079;-84
2022/05/27 03:13:57;;;;;;;0.50;0.50;;;;;;;8.37;96.78;97346.75;4934045;29;20096;-83
2022/05/27 03:16:42;;;;;;;0.50;0.50;;;;;;;8.37;96.63;97346.75;4934957;29;20136;-85
2022/05/27 03:19:30;;;;;;;0.50;0.50;;;;;;;8.36;96.65;97345.94;4934120;29;20043;-86
2022/05/27 03:22:10;;;;;;;0.50;0.50;;;;;;;8.33;96.31;97348.34;4934303;29;20047;-85
2022/05/27 03:24:46;;;;;;;0.50;0.50;;;;;;;8.38;96.49;97346.50;4934210;29;20161;-86
2022/05/27 03:27:51;;;;;;;0.50;0.50;;;;;;;8.35;96.40;97338.16;4935158;29;20062;-84
2022/05/27 03:30:22;;;;;;;0.50;0.50;;;;;;;8.38;96.50;97343.81;4933282;29;20047;-85
2022/05/27 03:33:20;;;;;;;0.50;0.50;;;;;;;8.35;96.38;97335.44;4918100;29;20536;-86
2022/05/27 03:35:55;;;;;;;0.50;0.50;;;;;;;8.43;96.05;97343.00;4924777;29;20059;-85
2022/05/27 03:38:25;;;;;;;0.50;0.50;;;;;;;8.36;95.49;97337.09;4945486;29;20130;-84
2022/05/27 03:41:05;;;;;;;0.50;0.50;;;;;;;8.36;95.46;97331.72;4931091;29;20099;-85
2022/05/27 03:43:34;;;;;;;0.50;0.50;;;;;;;8.32;94.88;97336.00;4916971;29;20052;-83
2022/05/27 03:46:03;;;;;;;0.50;0.50;;;;;;;8.45;95.18;97338.16;4914849;29;20080;-82
2022/05/27 03:48:32;;;;;;;0.50;0.50;;;;;;;8.50;95.22;97342.72;4915944;29;20056;-82
2022/05/27 03:51:11;;;;;;;0.50;0.50;;;;;;;8.57;95.48;97346.75;4916297;29;20047;-83
2022/05/27 03:56:24;;;;;;;0.50;0.50;;;;;;;8.61;94.91;97342.44;4918599;29;20052;-84
2022/05/27 03:58:51;;;;;;;0.50;0.50;;;;;;;8.66;94.68;97342.44;4919709;29;20155;-82
2022/05/27 04:01:22;;;;;;;0.50;0.50;;;;;;;8.66;94.19;97336.25;4934982;29;20111;-85
2022/05/27 04:03:52;;;;;;;0.50;0.50;;;;;;;8.74;94.30;97340.28;4933021;29;20051;-85
2022/05/27 04:06:19;;;;;;;0.50;0.50;;;;;;;8.71;94.06;97333.56;4948798;29;20095;-84
2022/05/27 04:08:46;;;;;;;0.50;0.50;;;;;;;8.85;93.80;97350.72;4934608;29;20083;-84
2022/05/27 04:11:13;;;;;;;0.50;0.50;;;;;;;8.80;93.40;97336.47;4934260;29;20062;-83
2022/05/27 04:13:41;;;;;;;0.50;0.50;;;;;;;8.83;93.38;97360.13;4933908;29;20055;-82
2022/05/27 04:16:08;;;;;;;0.50;0.50;;;;;;;8.76;93.50;97336.22;4934463;29;20051;-84
2022/05/27 04:18:35;;;;;;;0.50;0.50;;;;;;;8.90;93.07;97341.81;4584221;29;10000912;-81
2022/05/27 04:21:02;;;;;;;0.50;0.50;;;;;;;8.86;93.05;97327.31;4911321;29;20070;-84
2022/05/27 04:23:29;;;;;;;0.50;0.50;;;;;;;8.89;93.14;97318.72;4912002;29;20052;-83
2022/05/27 04:25:57;;;;;;;0.50;0.50;;;;;;;9.08;92.74;97343.91;4911734;29;20491;-85
2022/05/27 04:28:24;;;;;;;0.50;0.50;;;;;;;9.09;92.40;97345.53;4911543;29;20056;-83
2022/05/27 04:30:51;;;;;;;0.40;0.40;;;;;;;9.01;92.57;97347.97;4911356;29;20567;-82
2022/05/27 04:33:18;;;;;;;0.40;0.40;;;;;;;8.96;92.49;97337.22;4911227;29;20456;-83
2022/05/27 04:35:46;;;;;;;0.50;0.50;;;;;;;8.95;92.05;97346.38;4910888;29;20059;-83
2022/05/27 04:38:13;;;;;;;0.40;0.40;;;;;;;8.89;92.19;97332.16;4914434;29;20071;-81
2022/05/27 04:40:40;;;;;;;0.40;0.40;;;;;;;8.98;91.87;97341.25;4913970;29;20136;-83
2022/05/27 04:43:09;;;;;;;0.50;0.50;;;;;;;9.14;92.03;97346.56;4914977;29;20147;-83
2022/05/27 04:45:36;;;;;;;0.50;0.50;;;;;;;9.14;92.09;97327.75;4922945;29;20071;-86
2022/05/27 04:48:04;;;;;;;0.50;0.50;;;;;;;9.27;91.33;97346.00;4930124;29;20068;-89
2022/05/27 04:50:35;;;;;;;0.50;0.50;;;;;;;9.28;90.64;97347.59;4927172;29;20056;-86
2022/05/27 04:53:04;;;;;;;0.50;0.50;;;;;;;9.23;90.84;97353.00;4936759;29;20147;-88
2022/05/27 04:55:33;;;;;;;0.40;0.40;;;;;;;9.14;90.62;97338.50;4914256;29;20052;-85
2022/05/27 04:58:00;;;;;;;0.43;0.43;;;;;;;9.07;90.76;97334.22;4916284;29;20054;-84
2022/05/27 05:00:34;;;;;;;0.50;0.50;;;;;;;9.18;91.21;97350.34;4924735;29;20104;-92
2022/05/27 05:03:01;;;;;;;0.40;0.40;;;;;;;9.04;91.53;97348.25;4912708;29;20048;-86
2022/05/27 05:05:30;;;;;;;0.50;0.50;;;;;;;8.94;91.43;97348.28;4921613;29;20111;-85
2022/05/27 05:08:06;;;;;;;0.50;0.50;;;;;;;8.86;90.22;97355.03;4922773;29;20143;-90
2022/05/27 05:10:35;;;;;;;0.43;0.43;;;;;;;8.71;89.55;97344.31;4921834;29;20174;-85
2022/05/27 05:13:02;;;;;;;0.50;0.50;;;;;;;8.77;89.24;97353.16;4921511;29;20059;-89
2022/05/27 05:15:29;;;;;;;0.50;0.50;;;;;;;8.95;88.56;97374.09;4927256;29;20052;-90
2022/05/27 05:17:57;;;;;;;0.50;0.50;;;;;;;9.05;87.20;97359.81;4928136;29;20119;-87
2022/05/27 05:20:28;;;;;;;0.60;0.60;;;;;;;9.34;86.49;97359.94;4920010;29;20052;-85
2022/05/27 05:22:55;;;;;;;0.50;0.50;;;;;;;9.37;85.68;97340.56;4919423;29;20138;-84
2022/05/27 05:25:23;;;;;;;0.52;0.52;;;;;;;9.55;85.18;97341.81;4923815;29;20162;-86
2022/05/27 05:27:52;;;;;;;0.60;0.60;;;;;;;9.90;84.08;97359.66;4937512;29;20051;-88
2022/05/27 05:30:23;;;;;;;0.60;0.60;;;;;;;10.04;83.78;97365.19;4939783;29;20063;-85
2022/05/27 05:32:51;;;;;;;0.52;0.52;;;;;;;10.10;83.02;97368.66;4937555;29;20416;-89
2022/05/27 05:35:19;;;;;;;0.50;0.50;;;;;;;10.03;83.06;97355.50;4938166;29;20103;-89
2022/05/27 05:37:46;;;;;;;0.50;0.50;;;;;;;10.24;82.81;97371.53;4918552;29;20396;-91
2022/05/27 05:40:14;;;;;;;0.60;0.60;;;;;;;10.24;81.62;97366.94;4926830;29;20427;-89
2022/05/27 05:42:41;;;;;;;0.50;0.50;;;;;;;10.30;80.67;97360.44;4920445;29;20162;-91
2022/05/27 05:45:10;;;;;;;0.50;0.50;;;;;;;10.33;80.51;97373.38;4922151;29;20052;-92
2022/05/27 05:47:38;;;;;;;0.50;0.50;;;;;;;10.27;80.39;97369.06;4903952;29;20068;-87
2022/05/27 05:50:05;;;;;;;0.50;0.50;;;;;;;10.10;79.48;97363.25;4919913;29;20062;-86
2022/05/27 05:52:32;;;;;;;0.50;0.50;;;;;;;9.92;80.52;97367.44;4928534;29;20099;-88
2022/05/27 05:54:59;;;;;;;0.50;0.50;;;;;;;9.91;80.79;97376.63;4921695;29;20579;-85
2022/05/27 05:57:26;;;;;;;0.50;0.50;;;;;;;9.86;80.44;97377.44;4918123;29;20423;-91
2022/05/27 05:59:55;;;;;;;0.50;0.50;;;;;;;9.69;80.35;97363.53;4923425;29;20052;-86
2022/05/27 06:02:22;;;;;;;0.50;0.50;;;;;;;10.03;80.55;97384.34;4916092;29;20443;-87
2022/05/27 06:04:50;;;;;;;0.50;0.50;;;;;;;9.82;79.24;97349.44;4935799;29;20095;-87
2022/05/27 06:07:17;;;;;;;0.60;0.60;;;;;;;10.13;78.94;97393.16;4937171;29;20510;-87
2022/05/27 06:09:44;;;;;;;0.60;0.60;;;;;;;10.20;78.24;97406.31;4924684;29;20500;-86
2022/05/27 06:12:12;;;;;;;0.60;0.60;;;;;;;10.06;78.27;97389.19;4927333;29;20582;-87
2022/05/27 06:14:39;;;;;;;0.50;0.50;;;;;;;10.10;78.71;97390.22;4907314;29;20095;-87
2022/05/27 06:17:07;;;;;;;0.47;0.47;;;;;;;10.12;78.42;97388.06;4923751;29;20048;-85
2022/05/27 06:19:34;;;;;;;0.50;0.50;;;;;;;10.15;78.29;97388.31;4918476;29;20048;-84
2022/05/27 06:22:01;;;;;;;0.50;0.50;;;;;;;10.30;78.32;97390.09;4922947;29;20142;-86
2022/05/27 06:24:28;;;;;;;0.50;0.50;;;;;;;10.29;77.85;97407.38;4928392;29;20076;-84
2022/05/27 06:26:55;;;;;;;0.50;0.50;;;;;;;10.22;77.72;97401.44;4926691;29;20072;-85
2022/05/27 06:34:54;;;;;;;0.50;0.50;;;;;;;10.42;77.98;97403.22;4927906;29;20079;-85
2022/05/27 06:37:22;;;;;;;0.60;0.60;;;;;;;10.64;78.41;97405.47;4917155;29;20056;-85
2022/05/27 06:39:50;;;;;;;0.60;0.60;;;;;;;10.87;76.70;97401.19;4900110;29;20431;-87
2022/05/27 06:42:17;;;;;;;0.50;0.50;;;;;;;10.96;75.36;97414.88;4916945;29;20078;-87
2022/05/27 06:45:06;;;;;;;0.50;0.50;;;;;;;10.80;74.53;97398.81;4927070;29;20044;-84
2022/05/27 06:47:33;;;;;;;0.50;0.50;;;;;;;11.01;74.21;97423.75;4921948;29;20056;-88
2022/05/27 06:50:00;;;;;;;0.60;0.60;;;;;;;11.19;73.90;97415.97;4928929;29;20060;-82
2022/05/27 06:52:28;;;;;;;0.60;0.60;;;;;;;11.31;72.62;97423.69;4916577;29;20103;-85
2022/05/27 06:54:56;;;;;;;0.50;0.50;;;;;;;11.44;72.51;97431.91;4917259;29;20052;-84
2022/05/27 06:57:23;;;;;;;0.50;0.50;;;;;;;11.63;72.01;97413.03;4916854;29;20060;-83
2022/05/27 06:59:50;;;;;;;0.60;0.60;;;;;;;11.76;71.68;97424.22;4916568;29;20401;-84
2022/05/27 07:02:17;;;;;;;0.60;0.60;;;;;;;11.90;70.66;97425.13;4916185;29;20460;-83
2022/05/27 07:04:45;;;;;;;0.50;0.50;;;;;;;12.01;69.93;97420.38;4916194;29;20044;-84
2022/05/27 07:07:12;;;;;;;0.60;0.60;;;;;;;12.44;69.37;97425.69;4931257;29;20052;-84
2022/05/27 07:09:39;;;;;;;0.57;0.57;;;;;;;12.40;68.44;97421.97;4931021;29;20657;-83
2022/05/27 07:12:09;;;;;;;0.50;0.50;;;;;;;12.35;69.17;97430.97;4915035;29;20052;-83
2022/05/27 07:14:39;;;;;;;0.50;0.50;;;;;;;12.54;69.21;97442.56;4899280;29;20055;-83
2022/05/27 07:17:07;;;;;;;0.50;0.50;;;;;;;12.29;68.27;97421.31;4930633;29;20052;-83
2022/05/27 07:19:37;;;;;;;0.40;0.40;;;;;;;12.07;68.40;97424.63;4930388;29;20411;-83
2022/05/27 07:22:11;;;;;;;0.50;0.50;;;;;;;11.92;69.25;97415.66;4915164;29;20528;-84
2022/05/27 07:24:39;;;;;;;0.60;0.60;;;;;;;12.02;69.52;97416.56;4915980;29;20048;-84
2022/05/27 07:27:06;;;;;;;0.50;0.50;;;;;;;12.19;69.55;97429.59;4915845;29;20044;-83
2022/05/27 07:29:34;;;;;;;0.50;0.50;;;;;;;12.09;69.78;97420.53;4915445;29;20150;-83
2022/05/27 07:32:02;;;;;;;0.40;0.40;;;;;;;11.87;70.29;97423.78;4915816;29;20044;-84
2022/05/27 07:34:29;;;;;;;0.40;0.40;;;;;;;11.61;70.77;97422.50;4915741;29;20048;-84
2022/05/27 07:36:57;;;;;;;0.40;0.40;;;;;;;11.36;72.08;97437.13;4915975;29;20064;-85
2022/05/27 07:39:24;;;;;;;0.50;0.50;;;;;;;11.15;73.39;97425.75;4915586;29;20052;-83
2022/05/27 07:41:51;;;;;;;0.50;0.50;;;;;;;10.69;76.18;97429.69;4915825;29;20088;-83
2022/05/27 07:44:18;;;;;;;0.50;0.50;;;;;;;10.25;78.36;97435.13;4913603;29;20558;-86
2022/05/27 07:46:45;;;;;;;0.50;0.50;;;;;;;10.09;80.28;97443.31;4912052;29;20112;-84
2022/05/27 07:49:13;;;;;;;0.50;0.50;;;;;;;10.05;81.27;97441.47;4912147;29;20067;-84
2022/05/27 07:52:00;;;;;;;0.50;0.50;;;;;;;10.38;81.23;97451.53;4915657;29;20393;-84
2022/05/27 07:54:27;;;;;;;0.50;0.50;;;;;;;10.69;79.75;97432.41;4915624;29;20052;-86
2022/05/27 07:56:54;;;;;;;0.60;0.60;;;;;;;10.94;78.52;97442.16;4914328;29;20417;-87
2022/05/27 07:59:23;;;;;;;0.50;0.50;;;;;;;11.31;77.83;97456.09;4916012;29;20048;-85
2022/05/27 08:01:50;;;;;;;0.50;0.50;;;;;;;11.46;77.21;97454.00;4915184;29;20587;-84
2022/05/27 08:04:18;;;;;;;0.50;0.50;;;;;;;11.42;76.75;97446.75;4882496;29;20056;-84
2022/05/27 08:06:46;;;;;;;0.60;0.60;;;;;;;11.56;76.50;97460.41;4913789;29;20143;-84
2022/05/27 08:09:14;;;;;;;0.60;0.60;;;;;;;11.65;76.08;97458.69;4915339;29;20052;-85
2022/05/27 08:11:41;;;;;;;0.60;0.60;;;;;;;11.86;75.70;97467.31;4929961;29;20503;-85
2022/05/27 08:14:09;;;;;;;0.45;0.45;;;;;;;11.78;76.17;97467.97;4915986;29;20076;-85
2022/05/27 08:16:39;;;;;;;0.50;0.50;;;;;;;11.79;75.47;97450.66;4913559;29;20044;-85
2022/05/27 08:19:07;;;;;;;0.60;0.60;;;;;;;12.09;75.05;97465.69;4916615;29;20144;-85
2022/05/27 08:21:36;;;;;;;0.60;0.60;;;;;;;12.00;72.92;97454.75;4918349;29;20146;-84
2022/05/27 08:24:10;;;;;;;0.60;0.60;;;;;;;12.22;72.06;97472.28;4915339;29;20051;-85
2022/05/27 08:26:38;;;;;;;0.70;0.70;;;;;;;12.34;71.90;97468.03;4917820;29;20143;-89
2022/05/27 08:29:08;;;;;;;0.60;0.60;;;;;;;12.82;70.63;97467.03;4915345;29;20426;-86
2022/05/27 08:31:37;;;;;;;0.60;0.60;;;;;;;13.07;69.18;97456.84;4927746;29;20150;-86
2022/05/27 08:39:46;;;;;;;0.70;0.70;;;;;;;13.42;65.99;97439.16;4937987;29;20503;-85
2022/05/27 08:42:22;;;;;;;0.60;0.60;;;;;;;13.40;65.71;97461.13;4948162;29;20146;-85
2022/05/27 08:45:00;;;;;;;0.60;0.60;;;;;;;13.12;68.02;97445.94;4932472;29;20057;-85
2022/05/27 08:47:41;;;;;;;0.50;0.50;;;;;;;13.40;66.95;97469.25;4936864;29;20138;-85
2022/05/27 08:50:40;;;;;;;0.60;0.60;;;;;;;13.54;67.55;97473.88;4941416;29;20051;-87
2022/05/27 08:53:51;;;;;;;0.50;0.50;;;;;;;13.72;65.38;97486.53;4931558;29;20462;-84
2022/05/27 08:59:28;;;;;;;0.50;0.50;;;;;;;13.55;63.26;97459.25;4922913;29;20048;-83
2022/05/27 09:02:25;;;;;;;0.70;0.70;;;;;;;13.72;62.79;97466.75;4942372;29;20048;-86
2022/05/27 09:05:05;;;;;;;0.80;0.80;;;;;;;14.24;62.80;97470.78;4925887;29;20161;-89
2022/05/27 09:07:49;;;;;;;0.60;0.60;;;;;;;14.21;61.12;97452.41;4911958;29;20111;-88
2022/05/27 09:10:55;;;;;;;0.88;0.88;;;;;;;14.47;61.03;97473.53;4923022;29;20084;-87
2022/05/27 09:13:30;;;;;;;;;;;;;;;14.06;62.71;97491.53;4882645;29;20053;-88
2022/05/27 09:16:08;;;;;;;0.50;0.50;;;;;;;13.76;63.62;97467.75;4877590;29;20329;-87
2022/05/27 09:18:58;;;;;;;0.50;0.50;;;;;;;14.06;63.48;97471.75;4878730;29;20086;-86
2022/05/27 09:21:37;;;;;;;0.70;0.70;;;;;;;14.31;61.74;97473.88;4863533;29;20061;-88
2022/05/27 09:24:18;;;;;;;0.60;0.60;;;;;;;14.67;60.85;97475.78;4877112;29;20115;-86
2022/05/27 09:26:48;;;;;;;0.55;0.55;;;;;;;15.06;59.63;97482.44;4846755;29;20080;-86
2022/05/27 09:29:55;;;;;;;0.70;0.70;;;;;;;15.59;56.53;97483.50;4860656;29;20053;-86
2022/05/27 09:32:38;;;;;;;0.50;0.50;;;;;;;14.84;58.21;97449.88;4858699;29;20049;-88
2022/05/27 09:35:10;;;;;;;0.40;0.40;;;;;;;14.71;58.39;97479.50;4858664;29;20496;-88
2022/05/27 09:38:01;;;;;;;0.40;0.40;;;;;;;14.02;60.74;97487.00;4860242;29;20081;-87
2022/05/27 09:40:28;;;;;;;0.40;0.40;;;;;;;13.49;63.08;97496.47;4859491;29;20057;-86
2022/05/27 09:42:59;;;;;;;0.40;0.40;;;;;;;13.12;64.31;97489.28;4859095;29;20105;-87
2022/05/27 09:45:26;;;;;;;0.40;0.40;;;;;;;13.05;64.42;97480.72;4859582;29;20583;-89
2022/05/27 09:47:59;;;;;;;0.40;0.40;;;;;;;12.92;64.46;97495.84;4856566;29;20049;-89
2022/05/27 09:50:29;;;;;;;0.50;0.50;;;;;;;12.81;64.73;97470.81;4880868;29;20064;-90
2022/05/27 09:52:58;;;;;;;0.40;0.40;;;;;;;12.98;64.92;97494.63;4906717;29;20048;-84
2022/05/27 09:55:35;;;;;;;0.40;0.40;;;;;;;12.98;64.77;97487.31;4905216;29;20044;-85
2022/05/27 09:58:05;;;;;;;0.50;0.50;;;;;;;12.89;65.31;97480.97;4912750;29;20043;-86
2022/05/27 10:00:52;;;;;;;0.40;0.40;;;;;;;12.90;64.04;97482.56;4929500;29;20052;-85
2022/05/27 10:03:36;;;;;;;0.40;0.40;;;;;;;12.68;63.94;97477.00;4917605;29;20060;-85
2022/05/27 10:06:10;;;;;;;0.40;0.40;;;;;;;12.68;64.70;97498.63;4927183;29;20431;-85
2022/05/27 10:08:53;;;;;;;0.55;0.55;;;;;;;12.84;65.10;97491.91;4917563;29;20139;-85
2022/05/27 10:11:23;;;;;;;0.55;0.55;;;;;;;12.68;66.80;97507.56;4918264;29;20588;-85
2022/05/27 10:14:06;;;;;;;0.60;0.60;;;;;;;12.55;65.93;97522.63;4924547;29;20056;-87
2022/05/27 10:16:34;;;;;;;1.10;1.10;;;;;;;13.51;63.70;97505.09;4922343;29;20051;-87
2022/05/27 10:19:14;;;;;;;1.10;1.10;;;;;;;15.06;59.02;97495.22;4940542;29;20056;-87
2022/05/27 10:22:03;;;;;;;0.60;0.60;;;;;;;15.64;57.21;97507.03;4924666;29;20110;-87
2022/05/27 10:24:42;;;;;;;0.60;0.60;;;;;;;15.22;58.66;97495.63;4915974;29;20078;-86
2022/05/27 10:27:15;;;;;;;0.50;0.50;;;;;;;14.97;59.35;97506.03;4904519;29;20516;-86
2022/05/27 10:30:09;;;;;;;0.50;0.50;;;;;;;14.30;59.64;97494.00;4915445;29;20396;-86
2022/05/27 10:32:38;;;;;;;0.60;0.60;;;;;;;14.87;58.18;97517.97;4923706;29;20048;-86
2022/05/27 10:35:09;;;;;;;1.05;1.05;;;;;;;14.71;59.16;97506.66;4928739;29;20198;-86
2022/05/27 10:38:14;;;;;;;0.50;0.50;;;;;;;14.54;59.33;97520.09;4935173;29;20456;-86
2022/05/27 10:41:07;;;;;;;0.80;0.80;;;;;;;14.98;59.97;97507.63;4933189;29;20150;-86
2022/05/27 10:44:10;;;;;;;0.50;0.50;;;;;;;15.01;59.29;97501.56;4933596;29;20074;-85
2022/05/27 10:46:45;;;;;;;0.50;0.50;;;;;;;14.72;59.25;97508.25;4927390;29;20047;-86
2022/05/27 10:49:38;;;;;;;0.60;0.60;;;;;;;14.74;57.64;97503.31;4922353;29;20048;-86
2022/05/27 10:52:24;;;;;;;0.90;0.90;;;;;;;16.49;54.01;97528.56;4915825;29;20115;-88
2022/05/27 10:55:03;;;;;;;0.50;0.50;;;;;;;16.06;54.66;97511.03;4920474;29;20063;-85
2022/05/27 11:03:40;;;;;;;0.40;0.40;;;;;;;14.22;59.93;97548.97;4921842;29;20151;-85
2022/05/27 11:06:13;;;;;;;0.50;0.50;;;;;;;13.61;61.81;97552.88;4930237;29;20501;-89
2022/05/27 11:09:09;;;;;;;0.55;0.55;;;;;;;13.34;63.17;97535.50;4934350;29;20059;-87
2022/05/27 11:12:00;;;;;;;0.82;0.82;;;;;;;14.11;62.07;97546.78;4932270;29;20083;-87
2022/05/27 11:15:13;;;;;;;0.60;0.60;;;;;;;14.41;62.00;97542.63;4928629;29;20564;-88
2022/05/27 11:17:57;;;;;;;0.90;0.90;;;;;;;15.50;59.73;97543.28;4935607;29;20103;-88
2022/05/27 11:21:00;;;;;;;1.00;1.00;;;;;;;17.64;54.60;97537.09;4936089;29;20082;-87
2022/05/27 11:23:53;;;;;;;0.90;0.90;;;;;;;19.16;51.04;97532.47;4928355;29;20169;-87
2022/05/27 11:26:38;;;;;;;0.90;0.90;;;;;;;18.82;50.92;97530.88;4916872;29;20079;-86
2022/05/27 11:29:11;;;;;;;0.40;0.40;;;;;;;17.68;52.67;97527.94;4927983;29;20051;-88
2022/05/27 11:31:57;;;;;;;0.40;0.40;;;;;;;16.44;56.00;97527.59;4923253;29;20060;-87
2022/05/27 11:34:33;;;;;;;0.40;0.40;;;;;;;15.68;58.29;97518.91;4915174;29;20048;-87
2022/05/27 11:37:22;;;;;;;0.35;0.35;;;;;;;14.71;60.39;97533.81;4916624;29;20056;-88
2022/05/27 11:40:26;;;;;;;0.40;0.40;;;;;;;13.88;63.00;97561.03;4920099;29;20107;-90
2022/05/27 11:43:28;;;;;;;0.50;0.50;;;;;;;13.09;66.49;97544.00;4931375;29;20533;-88
2022/05/27 11:46:17;;;;;;;0.80;0.80;;;;;;;13.36;65.88;97538.69;4934038;29;20114;-88
2022/05/27 11:49:17;;;;;;;1.10;1.10;;;;;;;14.89;64.57;97542.09;4931497;29;20162;-87
2022/05/27 11:51:47;;;;;;;0.90;0.90;;;;;;;16.90;57.04;97537.09;4906185;29;20516;-87
2022/05/27 11:54:26;;;;;;;0.60;0.60;;;;;;;17.04;53.29;97536.94;4928814;29;20055;-87
2022/05/27 11:57:12;;;;;;;0.60;0.60;;;;;;;16.41;53.87;97533.69;4917155;29;20105;-86
2022/05/27 11:59:47;;;;;;;0.50;0.50;;;;;;;16.48;52.74;97541.38;4932791;29;20107;-87
2022/05/27 12:02:34;;;;;;;0.70;0.70;;;;;;;16.51;53.26;97524.41;4930663;29;20131;-89
2022/05/27 12:05:09;;;;;;;0.50;0.50;;;;;;;16.02;53.83;97535.34;4925472;29;20051;-88
2022/05/27 12:07:39;;;;;;;0.40;0.40;;;;;;;15.25;55.96;97527.63;4926197;29;20476;-90
2022/05/27 12:10:23;;;;;;;0.40;0.40;;;;;;;14.88;58.90;97545.91;4921693;29;20052;-89
2022/05/27 12:13:06;;;;;;;0.40;0.40;;;;;;;14.30;62.36;97551.00;4924790;29;20052;-86
2022/05/27 12:15:37;;;;;;;0.40;0.40;;;;;;;13.50;66.14;97559.63;4925580;29;20063;-86
2022/05/27 12:18:10;;;;;;;0.40;0.40;;;;;;;12.93;68.61;97536.13;4916326;29;20420;-87
2022/05/27 12:20:38;;;;;;;0.40;0.40;;;;;;;12.94;69.18;97566.75;4906880;29;20048;-87
2022/05/27 12:23:08;;;;;;;0.40;0.40;;;;;;;12.87;69.62;97558.19;4918392;29;20070;-86
2022/05/27 12:25:46;;;;;;;0.40;0.40;;;;;;;13.10;70.54;97570.81;4930280;29;20411;-88
2022/05/27 12:28:17;;;;;;;0.40;0.40;;;;;;;13.17;69.43;97562.31;4933792;29;20072;-88
2022/05/27 12:30:45;;;;;;;0.40;0.40;;;;;;;13.07;69.79;97554.34;4934387;29;20185;-87
2022/05/27 12:33:17;;;;;;;0.40;0.40;;;;;;;13.15;68.12;97554.47;4930957;29;20051;-84
2022/05/27 12:35:59;;;;;;;0.40;0.40;;;;;;;12.90;68.60;97574.63;4923249;29;20048;-86
2022/05/27 12:38:28;;;;;;;0.40;0.40;;;;;;;12.70;69.90;97573.03;4898745;29;20048;-85
2022/05/27 12:41:02;;;;;;;0.50;0.50;;;;;;;12.56;70.33;97578.38;4882724;29;20400;-87